createdAt,value
2022-11-02T00:01:41.232Z,2.20
2022-11-02T00:04:38.458Z,2.00
2022-11-02T00:07:36.011Z,1.00
2022-11-02T00:10:32.487Z,5.20
2022-11-02T00:13:29.671Z,2.20
2022-11-02T00:16:26.611Z,1.40
2022-11-02T00:19:23.644Z,2.00
2022-11-02T00:22:21.054Z,1.80
2022-11-02T00:25:18.544Z,2.00
2022-11-02T00:28:15.630Z,1.60
2022-11-02T00:31:12.931Z,0.60
2022-11-02T00:34:10.175Z,1.00
2022-11-02T00:37:07.941Z,1.80
2022-11-02T00:40:05.676Z,2.20
2022-11-02T00:43:02.716Z,3.00
2022-11-02T00:45:59.435Z,3.40
2022-11-02T00:48:56.912Z,1.80
2022-11-02T00:51:53.712Z,2.60
2022-11-02T00:54:50.763Z,1.60
2022-11-02T00:57:48.753Z,2.80
2022-11-02T01:00:45.661Z,2.00
2022-11-02T01:03:42.385Z,2.80
2022-11-02T01:06:40.359Z,2.00
2022-11-02T01:09:37.963Z,1.20
2022-11-02T01:12:37.441Z,1.80
2022-11-02T01:15:36.893Z,2.20
2022-11-02T01:18:35.454Z,2.00
2022-11-02T01:21:32.685Z,1.00
2022-11-02T01:24:29.938Z,1.80
2022-11-02T01:27:26.413Z,1.80
2022-11-02T01:30:23.623Z,0.80
2022-11-02T01:33:20.626Z,2.00
2022-11-02T01:39:22.684Z,1.80
2022-11-02T01:42:20.712Z,1.00
2022-11-02T01:45:17.619Z,1.80
2022-11-02T01:48:14.789Z,2.00
2022-11-02T01:51:15.995Z,2.00
2022-11-02T01:54:14.590Z,1.00
2022-11-02T01:57:13.711Z,3.20
2022-11-02T02:00:12.905Z,1.60
2022-11-02T02:03:06.761Z,2.00
2022-11-02T02:06:12.682Z,3.00
2022-11-02T02:09:10.291Z,1.00
2022-11-02T02:12:07.767Z,2.00
2022-11-02T02:15:05.286Z,2.00
2022-11-02T02:18:17.969Z,2.20
2022-11-02T02:21:35.754Z,2.00
2022-11-02T02:25:11.869Z,1.60
2022-11-02T02:28:25.294Z,1.60
2022-11-02T02:31:34.512Z,2.40
2022-11-02T02:34:37.221Z,2.60
2022-11-02T02:37:35.887Z,3.00
2022-11-02T02:40:37.835Z,3.00
2022-11-02T02:43:40.774Z,3.00
2022-11-02T02:46:45.449Z,2.00
2022-11-02T02:49:53.614Z,2.20
2022-11-02T02:52:50.649Z,2.40
2022-11-02T02:55:48.285Z,1.40
2022-11-02T02:58:51.733Z,1.20
2022-11-02T03:01:49.110Z,1.80
2022-11-02T03:04:47.239Z,1.60
2022-11-02T03:07:44.725Z,2.00
2022-11-02T03:10:49.090Z,1.00
2022-11-02T03:13:49.751Z,1.20
2022-11-02T03:17:19.693Z,1.00
2022-11-02T03:20:39.251Z,2.00
2022-11-02T03:23:44.321Z,2.20
2022-11-02T03:27:03.407Z,2.00
2022-11-02T03:30:14.789Z,2.20
2022-11-02T03:33:18.505Z,1.20
2022-11-02T03:36:31.477Z,2.40
2022-11-02T03:39:37.096Z,2.00
2022-11-02T03:42:34.949Z,2.00
2022-11-02T03:45:38.684Z,2.00
2022-11-02T03:48:38.648Z,2.00
2022-11-02T03:51:38.079Z,2.60
2022-11-02T03:54:41.862Z,4.20
2022-11-02T03:57:46.858Z,2.60
2022-11-02T04:00:51.176Z,2.00
2022-11-02T04:03:47.891Z,2.00
2022-11-02T04:06:45.127Z,2.40
2022-11-02T04:09:42.701Z,2.20
2022-11-02T04:12:58.013Z,3.00
2022-11-02T04:15:54.760Z,2.40
2022-11-02T04:19:11.144Z,3.00
2022-11-02T04:22:27.060Z,3.00
2022-11-02T04:25:31.918Z,2.20
2022-11-02T04:28:45.035Z,1.00
2022-11-02T04:31:42.839Z,2.20
2022-11-02T04:34:39.751Z,2.80
2022-11-02T04:38:02.003Z,3.00
2022-11-02T04:41:22.109Z,3.00
2022-11-02T04:44:24.905Z,1.80
2022-11-02T04:47:34.829Z,2.80
2022-11-02T04:50:31.729Z,2.40
2022-11-02T04:53:29.929Z,3.00
2022-11-02T04:56:27.337Z,3.00
2022-11-02T04:59:25.831Z,2.60
2022-11-02T05:02:23.835Z,2.40
2022-11-02T05:05:22.050Z,1.40
2022-11-02T05:08:22.146Z,2.00
2022-11-02T05:11:20.085Z,3.00
2022-11-02T05:14:20.058Z,5.00
2022-11-02T05:17:17.978Z,2.40
2022-11-02T05:20:14.904Z,2.00
2022-11-02T05:23:12.925Z,1.80
2022-11-02T05:26:11.781Z,2.00
2022-11-02T05:29:11.842Z,1.40
2022-11-02T05:32:09.748Z,1.80
2022-11-02T05:35:08.699Z,1.00
2022-11-02T05:38:06.167Z,1.00
2022-11-02T05:41:02.874Z,1.60
2022-11-02T05:44:04.948Z,2.40
2022-11-02T05:47:02.208Z,3.00
2022-11-02T05:49:58.836Z,2.00
2022-11-02T05:52:55.995Z,2.00
2022-11-02T05:55:53.482Z,2.20
2022-11-02T06:01:49.152Z,2.80
2022-11-02T06:04:46.032Z,1.00
2022-11-02T06:07:42.978Z,2.00
2022-11-02T06:10:42.922Z,1.20
2022-11-02T06:13:40.953Z,1.00
2022-11-02T06:16:37.900Z,0.60
2022-11-02T06:19:34.696Z,1.20
2022-11-02T06:22:38.184Z,2.00
2022-11-02T06:25:35.113Z,2.00
2022-11-02T06:28:32.355Z,2.00
2022-11-02T06:31:29.695Z,1.00
2022-11-02T06:34:27.024Z,2.00
2022-11-02T06:37:23.955Z,1.60
2022-11-02T06:40:22.738Z,2.00
2022-11-02T06:43:23.401Z,1.60
2022-11-02T06:46:21.479Z,2.00
2022-11-02T06:49:18.949Z,1.00
2022-11-02T06:52:15.919Z,2.00
2022-11-02T06:55:12.882Z,2.20
2022-11-02T06:58:10.096Z,1.20
2022-11-02T07:01:07.677Z,1.60
2022-11-02T07:04:05.149Z,1.00
2022-11-02T07:07:01.814Z,1.00
2022-11-02T07:09:58.961Z,1.80
2022-11-02T07:12:56.680Z,1.20
2022-11-02T07:15:54.727Z,1.40
2022-11-02T07:18:52.254Z,2.00
2022-11-02T07:21:49.152Z,2.00
2022-11-02T07:24:46.290Z,1.00
2022-11-02T07:27:43.083Z,2.40
2022-11-02T07:30:39.908Z,0.20
2022-11-02T07:33:36.930Z,1.80
2022-11-02T07:36:33.885Z,2.00
2022-11-02T07:39:30.899Z,2.00
2022-11-02T07:42:28.151Z,2.20
2022-11-02T07:45:29.321Z,2.20
2022-11-02T07:48:25.824Z,2.00
2022-11-02T07:51:22.961Z,3.00
2022-11-02T07:54:20.142Z,2.40
2022-11-02T07:57:17.038Z,2.20
2022-11-02T08:00:14.195Z,2.00
2022-11-02T08:03:11.724Z,3.00
2022-11-02T08:06:08.927Z,2.00
2022-11-02T08:09:05.977Z,2.00
2022-11-02T08:12:02.951Z,1.40
2022-11-02T08:15:04.750Z,3.00
2022-11-02T08:18:05.452Z,1.60
2022-11-02T08:21:04.350Z,0.00
2022-11-02T08:24:01.323Z,2.00
2022-11-02T08:26:58.170Z,2.80
2022-11-02T08:29:54.945Z,2.60
2022-11-02T08:32:56.514Z,3.60
2022-11-02T08:35:54.179Z,5.00
2022-11-02T08:38:51.068Z,2.00
2022-11-02T08:41:47.842Z,2.60
2022-11-02T08:44:45.395Z,3.00
2022-11-02T08:47:42.259Z,3.60
2022-11-02T08:50:39.113Z,3.60
2022-11-02T08:53:36.098Z,2.40
2022-11-02T08:56:33.081Z,1.00
2022-11-02T08:59:29.880Z,2.80
2022-11-02T09:02:27.547Z,4.60
2022-11-02T09:05:25.332Z,1.80
2022-11-02T09:08:21.981Z,1.20
2022-11-02T09:11:19.277Z,2.60
2022-11-02T09:14:16.565Z,2.80
2022-11-02T09:17:14.346Z,1.60
2022-11-02T09:20:11.540Z,3.20
2022-11-02T09:23:08.876Z,1.00
2022-11-02T09:26:06.510Z,1.00
2022-11-02T09:29:03.918Z,1.40
2022-11-02T09:32:01.169Z,1.00
2022-11-02T09:34:58.355Z,1.00
2022-11-02T09:37:55.697Z,0.00
2022-11-02T09:40:59.032Z,1.40
2022-11-02T09:44:06.470Z,1.00
2022-11-02T09:47:55.784Z,0.00
2022-11-02T09:50:24.106Z,1.00
2022-11-02T09:53:27.911Z,0.80
2022-11-02T09:56:25.036Z,1.00
2022-11-02T09:59:25.876Z,0.00
2022-11-02T10:02:26.015Z,0.20
2022-11-02T10:05:34.000Z,1.00
2022-11-02T10:08:37.871Z,0.60
2022-11-02T10:11:40.791Z,1.20
2022-11-02T10:14:39.459Z,0.20
2022-11-02T10:17:37.358Z,0.00
2022-11-02T10:20:54.678Z,0.00
2022-11-02T10:23:53.334Z,0.80
2022-11-02T10:26:50.236Z,0.00
2022-11-02T10:29:52.820Z,0.00
2022-11-02T10:32:53.246Z,0.20
2022-11-02T10:39:31.349Z,0.80
2022-11-02T10:42:39.578Z,1.20
2022-11-02T10:45:55.049Z,0.40
2022-11-02T10:49:05.891Z,3.40
2022-11-02T10:52:03.985Z,1.00
2022-11-02T10:55:01.137Z,0.60
2022-11-02T10:57:59.086Z,0.20
2022-11-02T11:01:10.274Z,0.20
2022-11-02T11:04:20.117Z,0.00
2022-11-02T11:07:25.114Z,1.00
2022-11-02T11:10:23.686Z,0.40
2022-11-02T11:16:42.007Z,0.60
2022-11-02T11:19:40.721Z,1.00
2022-11-02T11:22:39.285Z,0.60
2022-11-02T11:25:36.269Z,1.20
2022-11-02T11:28:33.879Z,0.40
2022-11-02T11:31:31.237Z,1.00
2022-11-02T11:34:32.654Z,0.40
2022-11-02T11:37:30.325Z,0.00
2022-11-02T11:40:27.824Z,0.20
2022-11-02T11:43:27.001Z,1.00
2022-11-02T11:46:24.642Z,0.20
2022-11-02T11:49:35.997Z,1.00
2022-11-02T11:52:39.363Z,0.60
2022-11-02T11:55:36.609Z,1.00
2022-11-02T11:58:34.669Z,0.60
2022-11-02T12:01:39.529Z,0.40
2022-11-02T12:04:37.255Z,0.00
2022-11-02T12:08:11.905Z,0.20
2022-11-02T12:11:16.372Z,0.00
2022-11-02T12:14:24.796Z,1.20
2022-11-02T12:17:25.307Z,2.00
2022-11-02T12:20:59.431Z,0.00
2022-11-02T12:24:00.421Z,1.00
2022-11-02T12:27:04.779Z,2.00
2022-11-02T12:30:11.601Z,2.00
2022-11-02T12:33:22.913Z,0.80
2022-11-02T12:36:49.664Z,1.00
2022-11-02T12:40:14.610Z,1.00
2022-11-02T12:43:15.702Z,2.00
2022-11-02T12:46:39.018Z,1.00
2022-11-02T12:50:16.815Z,2.00
2022-11-02T12:53:32.781Z,1.80
2022-11-02T12:56:39.616Z,2.00
2022-11-02T12:59:36.409Z,1.40
2022-11-02T13:02:36.712Z,1.00
2022-11-02T13:05:42.768Z,2.00
2022-11-02T13:08:52.145Z,0.20
2022-11-02T13:11:53.355Z,2.00
2022-11-02T13:14:51.616Z,2.00
2022-11-02T13:17:53.909Z,1.00
2022-11-02T13:20:53.221Z,2.00
2022-11-02T13:23:51.882Z,1.00
2022-11-02T13:26:57.117Z,2.00
2022-11-02T13:30:01.856Z,2.00
2022-11-02T13:33:26.873Z,1.40
2022-11-02T13:36:24.450Z,1.60
2022-11-02T13:39:26.698Z,2.00
2022-11-02T13:42:27.114Z,2.00
2022-11-02T13:45:47.280Z,2.00
2022-11-02T13:48:50.524Z,2.20
2022-11-02T13:51:49.989Z,1.40
2022-11-02T13:54:51.135Z,2.40
2022-11-02T13:57:50.221Z,1.00
2022-11-02T14:00:47.233Z,2.00
2022-11-02T14:03:47.205Z,2.00
2022-11-02T14:07:03.830Z,2.00
2022-11-02T14:10:09.942Z,2.00
2022-11-02T14:13:17.653Z,3.00
2022-11-02T14:16:48.479Z,1.20
2022-11-02T14:19:47.617Z,3.00
2022-11-02T14:23:11.468Z,1.00
2022-11-02T14:26:31.642Z,2.60
2022-11-02T14:29:55.173Z,2.20
2022-11-02T14:33:15.926Z,0.60
2022-11-02T14:36:15.980Z,2.00
2022-11-02T14:39:47.676Z,2.20
2022-11-02T14:43:09.382Z,2.40
2022-11-02T14:46:37.428Z,2.00
2022-11-02T14:49:39.477Z,3.00
2022-11-02T14:52:36.634Z,2.00
2022-11-02T14:55:34.728Z,5.20
2022-11-02T14:58:37.951Z,3.00
2022-11-02T15:01:35.291Z,1.40
2022-11-02T15:04:33.204Z,3.60
2022-11-02T15:07:30.338Z,2.00
2022-11-02T15:10:30.209Z,2.40
2022-11-02T15:13:30.154Z,3.00
2022-11-02T15:16:38.732Z,3.60
2022-11-02T15:19:51.928Z,1.20
2022-11-02T15:22:54.821Z,2.60
2022-11-02T15:25:53.087Z,2.80
2022-11-02T15:28:50.315Z,2.00
2022-11-02T15:31:52.671Z,3.00
2022-11-02T15:34:50.983Z,2.40
2022-11-02T15:38:11.346Z,0.00
2022-11-02T15:41:23.305Z,1.60
2022-11-02T15:44:32.260Z,2.00
2022-11-02T15:47:50.705Z,2.00
2022-11-02T15:51:20.753Z,0.00
2022-11-02T15:54:45.723Z,1.60
2022-11-02T15:57:52.766Z,2.40
2022-11-02T16:01:23.107Z,2.40
2022-11-02T16:04:20.530Z,1.60
2022-11-02T16:07:17.723Z,1.60
2022-11-02T16:10:20.787Z,2.40
2022-11-02T16:13:22.113Z,1.80
2022-11-02T16:16:19.800Z,2.80
2022-11-02T16:19:20.831Z,3.20
2022-11-02T16:22:24.962Z,2.60
2022-11-02T16:25:39.958Z,3.40
2022-11-02T16:28:37.559Z,2.60
2022-11-02T16:31:34.634Z,3.00
2022-11-02T16:34:31.687Z,2.00
2022-11-02T16:37:28.396Z,4.00
2022-11-02T16:40:25.153Z,2.20
2022-11-02T16:43:22.600Z,2.20
2022-11-02T16:46:19.609Z,2.00
2022-11-02T16:49:19.880Z,3.00
2022-11-02T16:52:34.080Z,3.00
2022-11-02T16:55:37.442Z,0.60
2022-11-02T16:58:34.729Z,1.60
2022-11-02T17:01:38.869Z,3.00
2022-11-02T17:04:37.117Z,3.00
2022-11-02T17:07:41.964Z,0.60
2022-11-02T17:10:39.398Z,2.80
2022-11-02T17:13:37.500Z,4.40
2022-11-02T17:16:34.516Z,5.40
2022-11-02T17:20:09.736Z,6.00
2022-11-02T17:23:08.760Z,5.40
2022-11-02T17:26:22.153Z,3.00
2022-11-02T17:29:19.340Z,3.00
2022-11-02T17:32:16.317Z,4.00
2022-11-02T17:35:13.748Z,3.60
2022-11-02T17:38:10.422Z,5.00
2022-11-02T17:41:30.198Z,5.00
2022-11-02T17:44:27.186Z,5.20
2022-11-02T17:47:24.401Z,2.40
2022-11-02T17:50:21.380Z,2.60
2022-11-02T17:53:18.063Z,5.80
2022-11-02T17:56:15.751Z,6.00
2022-11-02T17:59:12.313Z,4.80
2022-11-02T18:02:13.350Z,7.00
2022-11-02T18:05:21.083Z,6.40
2022-11-02T18:08:18.803Z,5.00
2022-11-02T18:11:15.628Z,5.00
2022-11-02T18:14:14.409Z,7.00
2022-11-02T18:17:11.582Z,10.80
2022-11-02T18:20:09.669Z,5.60
2022-11-02T18:23:07.438Z,6.20
2022-11-02T18:26:04.523Z,7.60
2022-11-02T18:29:04.009Z,11.80
2022-11-02T18:32:01.544Z,5.20
2022-11-02T18:34:58.662Z,10.00
2022-11-02T18:37:55.618Z,6.80
2022-11-02T18:40:52.454Z,7.80
2022-11-02T18:43:49.391Z,10.60
2022-11-02T18:46:46.631Z,7.00
2022-11-02T18:49:43.576Z,6.20
2022-11-02T18:52:42.016Z,5.00
2022-11-02T18:55:40.272Z,11.60
2022-11-02T18:58:37.463Z,10.40
2022-11-02T19:01:34.720Z,12.40
2022-11-02T19:04:32.408Z,23.00
2022-11-02T19:07:48.027Z,12.00
2022-11-02T19:10:49.045Z,10.00
2022-11-02T19:13:46.585Z,8.20
2022-11-02T19:16:43.755Z,8.20
2022-11-02T19:19:45.432Z,7.80
2022-11-02T19:22:42.812Z,6.40
2022-11-02T19:25:39.504Z,16.80
2022-11-02T19:28:36.615Z,9.60
2022-11-02T19:31:34.439Z,6.00
2022-11-02T19:34:31.696Z,8.20
2022-11-02T19:37:34.222Z,7.00
2022-11-02T19:40:31.614Z,6.40
2022-11-02T19:43:28.537Z,11.40
2022-11-02T19:46:25.993Z,10.00
2022-11-02T19:49:23.484Z,2.60
2022-11-02T19:52:20.616Z,5.00
2022-11-02T19:55:17.788Z,6.80
2022-11-02T19:58:14.898Z,5.40
2022-11-02T20:01:13.255Z,5.00
2022-11-02T20:04:10.507Z,7.40
2022-11-02T20:07:07.449Z,5.80
2022-11-02T20:10:05.253Z,6.00
2022-11-02T20:13:02.539Z,8.20
2022-11-02T20:15:59.449Z,6.20
2022-11-02T20:18:56.970Z,5.80
2022-11-02T20:21:54.727Z,5.40
2022-11-02T20:24:51.410Z,5.00
2022-11-02T20:27:48.409Z,7.20
2022-11-02T20:30:45.895Z,7.00
2022-11-02T20:33:42.863Z,1.00
2022-11-02T20:36:39.862Z,5.80
2022-11-02T20:39:36.727Z,6.00
2022-11-02T20:42:37.836Z,6.40
2022-11-02T20:45:35.821Z,8.20
2022-11-02T20:48:32.875Z,6.00
2022-11-02T20:51:29.685Z,6.00
2022-11-02T20:54:29.572Z,7.00
2022-11-02T20:57:28.379Z,3.00
2022-11-02T21:00:25.626Z,6.00
2022-11-02T21:03:22.636Z,6.40
2022-11-02T21:06:19.778Z,5.00
2022-11-02T21:09:17.566Z,3.80
2022-11-02T21:12:33.325Z,7.00
2022-11-02T21:15:30.443Z,5.20
2022-11-02T21:18:27.746Z,3.40
2022-11-02T21:21:24.537Z,3.80
2022-11-02T21:24:21.471Z,5.40
2022-11-02T21:27:21.537Z,5.00
2022-11-02T21:30:19.112Z,5.00
2022-11-02T21:33:16.764Z,7.00
2022-11-02T21:36:13.970Z,5.00
2022-11-02T21:39:10.483Z,5.20
2022-11-02T21:42:07.626Z,5.00
2022-11-02T21:45:05.171Z,2.40
2022-11-02T21:48:02.930Z,5.60
2022-11-02T21:51:03.811Z,4.20
2022-11-02T21:54:00.790Z,3.80
2022-11-02T21:56:58.740Z,2.00
2022-11-02T21:59:56.064Z,4.20
2022-11-02T22:02:52.718Z,3.00
2022-11-02T22:05:55.496Z,3.40
2022-11-02T22:08:52.739Z,2.20
2022-11-02T22:12:09.613Z,5.00
2022-11-02T22:15:07.492Z,4.20
2022-11-02T22:18:04.688Z,2.60
2022-11-02T22:21:01.790Z,3.80
2022-11-02T22:23:59.115Z,3.40
2022-11-02T22:26:56.854Z,3.80
2022-11-02T22:29:53.851Z,3.80
2022-11-02T22:32:50.737Z,2.60
2022-11-02T22:35:47.717Z,5.00
2022-11-02T22:38:53.921Z,5.40
2022-11-02T22:41:51.657Z,6.20
2022-11-02T22:44:48.546Z,2.80
2022-11-02T22:47:45.375Z,2.20
2022-11-02T22:50:44.078Z,4.60
2022-11-02T22:53:41.859Z,5.20
2022-11-02T22:56:38.655Z,3.00
2022-11-02T22:59:35.823Z,2.60
2022-11-02T23:02:32.609Z,4.60
2022-11-02T23:05:30.675Z,3.00
2022-11-02T23:08:28.251Z,3.00
2022-11-02T23:11:31.056Z,3.00
2022-11-02T23:14:27.727Z,3.00
2022-11-02T23:17:25.140Z,3.00
2022-11-02T23:20:22.901Z,4.20
2022-11-02T23:23:38.218Z,1.00
2022-11-02T23:26:35.793Z,2.20
2022-11-02T23:29:51.088Z,4.60
2022-11-02T23:32:47.907Z,2.40
2022-11-02T23:36:03.062Z,6.00
2022-11-02T23:39:18.560Z,2.60
2022-11-02T23:42:15.673Z,2.80
2022-11-02T23:45:13.048Z,2.20
2022-11-02T23:48:10.510Z,2.00
2022-11-02T23:51:27.189Z,1.40
2022-11-02T23:54:43.346Z,4.60
2022-11-02T23:57:41.006Z,2.00
